Terminal Aerodrome Forecast
Issued by NWS Sterling, VA

Home | Current Version | Previous Version | Text Only | Print | Product List | Glossary On
Versions: 1 2 3 4 5 6 7 8 9 10 11 12 13 14 15 16
151
FTUS41 KLWX 190533
TAFMRB
TAF
KMRB 190533Z 1906/2006 00000KT P6SM OVC090
     FM190800 24007KT P6SM BKN045
     FM191000 26011G18KT P6SM BKN045
     FM191300 27017G26KT P6SM BKN045
     FM191500 29019G32KT P6SM BKN040
     FM192300 31017G29KT P6SM SCT050
     FM200100 31015G24KT P6SM SKC=

USA.gov is the U.S. government's official web portal to all federal, state and local government web resources and services.